Fall River, Kansas
Current Conditions -  °F | °C
As of 4:52 AM on Sunday 21 Dec 2014 (Local Time) from KCNU Reporting Station
Overcast Overcast  
Wind Chill: 31°   Ceiling: 800
Heat Index: 40°   Visibility: 8mi
Dew Point: 38°   Wind: 16mph
Humidity: 93%   Direction: 210°SSW
Pressure: 30.07"   Gusts: NA
Location:  37.61°N, 96.03°W
Report Text: KCNU 211052Z AUTO 21014KT 8SM OVC008 04/03 A3007 RMK AO2 CIG 006V013 SLP187 T00440033
Loading
Personal Weather Stations






























Interactive Weather Map New forecast layout! Learn more

10-Day Weather Forecast

Advertisements
Track Severe Weather on mobile